createdAt,value
2023-01-25T00:01:21.682Z,0
2023-01-25T00:03:01.872Z,0
2023-01-25T00:04:42.079Z,0
2023-01-25T00:06:22.376Z,0
2023-01-25T00:08:02.593Z,0
2023-01-25T00:09:42.816Z,0
2023-01-25T00:11:22.935Z,0
2023-01-25T00:13:03.188Z,0
2023-01-25T00:14:43.406Z,0
2023-01-25T00:16:23.702Z,0
2023-01-25T00:18:03.774Z,0
2023-01-25T00:19:43.993Z,0
2023-01-25T00:21:24.336Z,0
2023-01-25T00:23:04.478Z,0
2023-01-25T00:24:44.723Z,0
2023-01-25T00:26:24.960Z,0
2023-01-25T00:28:05.131Z,0
2023-01-25T00:29:45.319Z,0
2023-01-25T00:31:25.720Z,0
2023-01-25T00:33:05.729Z,0
2023-01-25T00:34:45.906Z,0
2023-01-25T00:36:26.052Z,0
2023-01-25T00:38:06.318Z,0
2023-01-25T00:39:46.520Z,0
2023-01-25T00:41:26.781Z,0
2023-01-25T00:43:06.974Z,0
2023-01-25T00:44:47.106Z,0
2023-01-25T00:46:27.367Z,0
2023-01-25T00:48:07.577Z,0
2023-01-25T00:49:47.778Z,0
2023-01-25T00:51:28.006Z,0
2023-01-25T00:53:08.231Z,0
2023-01-25T00:54:48.462Z,0
2023-01-25T00:56:28.805Z,0
2023-01-25T00:58:08.895Z,0
2023-01-25T00:59:49.119Z,0
2023-01-25T01:01:29.474Z,0
2023-01-25T01:03:09.611Z,0
2023-01-25T01:04:49.845Z,0
2023-01-25T01:06:29.950Z,0
2023-01-25T01:08:10.164Z,0
2023-01-25T01:09:50.355Z,0
2023-01-25T01:11:30.571Z,0
2023-01-25T01:13:10.742Z,0
2023-01-25T01:14:50.930Z,0
2023-01-25T01:16:31.205Z,0
2023-01-25T01:18:11.371Z,0
2023-01-25T01:19:51.681Z,0
2023-01-25T01:21:31.823Z,0
2023-01-25T01:23:12.024Z,0
2023-01-25T01:24:52.226Z,0
2023-01-25T01:26:32.422Z,0
2023-01-25T01:28:12.777Z,0
2023-01-25T01:29:52.862Z,0
2023-01-25T01:31:33.214Z,0
2023-01-25T01:33:13.238Z,0
2023-01-25T01:34:53.427Z,0
2023-01-25T01:36:33.633Z,0
2023-01-25T01:38:13.852Z,0
2023-01-25T01:39:54.056Z,0
2023-01-25T01:41:34.254Z,0
2023-01-25T01:43:14.429Z,0
2023-01-25T01:44:54.653Z,0
2023-01-25T01:46:34.852Z,0
2023-01-25T01:48:15.093Z,0
2023-01-25T01:49:55.336Z,0
2023-01-25T01:51:35.491Z,0
2023-01-25T01:53:15.730Z,0
2023-01-25T01:54:55.982Z,0
2023-01-25T01:56:36.296Z,0
2023-01-25T01:58:16.469Z,0
2023-01-25T01:59:56.574Z,0
2023-01-25T02:01:36.944Z,0
2023-01-25T02:03:17.195Z,0
2023-01-25T02:04:57.424Z,0
2023-01-25T02:06:37.649Z,0
2023-01-25T02:08:17.934Z,0
2023-01-25T02:09:58.097Z,0
2023-01-25T02:11:38.326Z,0
2023-01-25T02:13:18.508Z,0
2023-01-25T02:14:58.706Z,0
2023-01-25T02:16:38.872Z,0
2023-01-25T02:18:19.127Z,0
2023-01-25T02:19:59.369Z,0
2023-01-25T02:21:39.502Z,0
2023-01-25T02:23:19.764Z,0
2023-01-25T02:24:59.982Z,0
2023-01-25T02:26:40.181Z,0
2023-01-25T02:28:20.432Z,0
2023-01-25T02:30:00.630Z,0
2023-01-25T02:31:40.879Z,0
2023-01-25T02:33:21.055Z,0
2023-01-25T02:35:01.316Z,0
2023-01-25T02:36:41.523Z,0
2023-01-25T02:38:21.710Z,0
2023-01-25T02:40:01.898Z,0
2023-01-25T02:41:42.123Z,0
2023-01-25T02:43:22.283Z,0
2023-01-25T02:45:02.530Z,0
2023-01-25T02:46:42.760Z,0
2023-01-25T02:48:22.934Z,0
2023-01-25T02:50:03.154Z,0
2023-01-25T02:51:43.730Z,0
2023-01-25T02:53:23.648Z,0
2023-01-25T02:55:03.942Z,0
2023-01-25T02:56:44.174Z,0
2023-01-25T02:58:24.397Z,0
2023-01-25T03:00:04.651Z,0
2023-01-25T03:01:44.986Z,0
2023-01-25T03:03:25.187Z,0
2023-01-25T03:05:05.730Z,0
2023-01-25T03:06:45.614Z,0
2023-01-25T03:08:25.839Z,0
2023-01-25T03:10:06.088Z,0
2023-01-25T03:11:46.325Z,0
2023-01-25T03:13:26.528Z,0
2023-01-25T03:15:07.125Z,0
2023-01-25T03:16:46.894Z,0
2023-01-25T03:18:27.067Z,0
2023-01-25T03:20:07.275Z,0
2023-01-25T03:21:47.534Z,0
2023-01-25T03:23:27.734Z,0
2023-01-25T03:25:08.183Z,0
2023-01-25T03:26:48.095Z,0
2023-01-25T03:28:28.341Z,0
2023-01-25T03:30:08.516Z,0
2023-01-25T03:31:48.831Z,0
2023-01-25T03:33:29.002Z,0
2023-01-25T03:35:09.691Z,0
2023-01-25T03:36:49.405Z,0
2023-01-25T03:38:29.620Z,0
2023-01-25T03:40:09.886Z,0
2023-01-25T03:41:50.097Z,0
2023-01-25T03:43:30.351Z,0
2023-01-25T03:45:10.807Z,0
2023-01-25T03:46:50.792Z,0
2023-01-25T03:48:31.050Z,0
2023-01-25T03:50:11.335Z,0
2023-01-25T03:51:51.581Z,0
2023-01-25T03:53:31.767Z,0
2023-01-25T03:55:12.103Z,0
2023-01-25T03:56:52.192Z,0
2023-01-25T03:58:32.367Z,0
2023-01-25T04:00:12.553Z,0
2023-01-25T04:01:52.903Z,0
2023-01-25T04:03:33.043Z,0
2023-01-25T04:05:13.186Z,0
2023-01-25T04:06:53.392Z,0
2023-01-25T04:08:33.600Z,0
2023-01-25T04:10:13.841Z,0
2023-01-25T04:13:34.205Z,0
2023-01-25T04:15:14.395Z,0
2023-01-25T04:16:54.689Z,0
2023-01-25T04:18:34.854Z,0
2023-01-25T04:20:15.004Z,0
2023-01-25T04:21:55.227Z,0
2023-01-25T04:23:35.441Z,0
2023-01-25T04:25:15.652Z,0
2023-01-25T04:26:55.906Z,0
2023-01-25T04:28:36.120Z,0
2023-01-25T04:30:16.316Z,0
2023-01-25T04:31:56.651Z,0
2023-01-25T04:33:36.762Z,0
2023-01-25T04:35:17.010Z,0
2023-01-25T04:36:57.238Z,0
2023-01-25T04:38:37.507Z,0
2023-01-25T04:40:17.774Z,0
2023-01-25T04:41:58.025Z,0
2023-01-25T04:43:38.266Z,0
2023-01-25T04:45:18.383Z,0
2023-01-25T04:46:58.599Z,0
2023-01-25T04:48:38.802Z,0
2023-01-25T04:50:18.995Z,0
2023-01-25T04:51:59.280Z,0
2023-01-25T04:53:39.509Z,0
2023-01-25T04:55:19.720Z,0
2023-01-25T04:56:59.903Z,0
2023-01-25T04:58:40.107Z,0
2023-01-25T05:00:20.322Z,0
2023-01-25T05:02:00.600Z,0
2023-01-25T05:03:45.096Z,0
2023-01-25T05:05:20.950Z,0
2023-01-25T05:07:01.120Z,0
2023-01-25T05:08:41.316Z,0
2023-01-25T05:10:21.557Z,0
2023-01-25T05:12:01.787Z,0
2023-01-25T05:13:41.948Z,0
2023-01-25T05:15:22.209Z,0
2023-01-25T05:17:02.542Z,0
2023-01-25T05:18:48.987Z,0
2023-01-25T05:20:22.884Z,0
2023-01-25T05:22:03.114Z,0
2023-01-25T05:23:43.376Z,0
2023-01-25T05:25:23.593Z,0
2023-01-25T05:27:04.002Z,0
2023-01-25T05:28:43.991Z,0
2023-01-25T05:30:24.294Z,0
2023-01-25T05:32:04.687Z,0
2023-01-25T05:33:44.677Z,0
2023-01-25T05:35:24.873Z,0
2023-01-25T05:37:05.121Z,0
2023-01-25T05:38:45.345Z,0
2023-01-25T05:40:25.592Z,0
2023-01-25T05:42:05.789Z,0
2023-01-25T05:43:46.033Z,0
2023-01-25T05:45:26.218Z,0
2023-01-25T05:47:06.390Z,0
2023-01-25T05:48:46.657Z,0
2023-01-25T05:50:26.849Z,0
2023-01-25T05:52:07.103Z,0
2023-01-25T05:53:47.360Z,0
2023-01-25T05:55:27.552Z,0
2023-01-25T05:57:07.792Z,0
2023-01-25T05:58:47.956Z,0
2023-01-25T06:00:28.192Z,0
2023-01-25T06:02:08.428Z,0
2023-01-25T06:03:48.561Z,0
2023-01-25T06:05:28.737Z,0
2023-01-25T06:07:08.995Z,0
2023-01-25T06:08:55.171Z,0
2023-01-25T06:10:35.404Z,0
2023-01-25T06:12:15.586Z,0
2023-01-25T06:13:55.777Z,0
2023-01-25T06:15:36.040Z,0
2023-01-25T06:17:16.221Z,0
2023-01-25T06:18:56.423Z,0
2023-01-25T06:20:36.623Z,0
2023-01-25T06:22:16.841Z,0
2023-01-25T06:23:57.052Z,0
2023-01-25T06:25:37.235Z,0
2023-01-25T06:27:17.508Z,0
2023-01-25T06:28:57.703Z,0
2023-01-25T06:30:37.947Z,0
2023-01-25T06:32:18.198Z,0
2023-01-25T06:33:59.971Z,0
2023-01-25T06:35:38.660Z,0
2023-01-25T06:37:19.123Z,0
2023-01-25T06:37:19.136Z,0
2023-01-25T06:37:19.144Z,0
2023-01-25T06:37:19.151Z,0
2023-01-25T06:37:19.159Z,0
2023-01-25T06:38:59.116Z,0
2023-01-25T06:40:39.337Z,0
2023-01-25T06:42:19.554Z,0
2023-01-25T06:43:59.788Z,0
2023-01-25T06:45:39.965Z,0
2023-01-25T06:47:20.142Z,0
2023-01-25T06:49:00.401Z,0
2023-01-25T06:50:40.638Z,0
2023-01-25T06:52:20.897Z,0
2023-01-25T06:54:01.097Z,0
2023-01-25T06:55:41.324Z,0
2023-01-25T06:57:21.526Z,0
2023-01-25T06:59:01.739Z,0
2023-01-25T07:00:41.966Z,0
2023-01-25T07:02:22.244Z,0
2023-01-25T07:04:02.353Z,0
2023-01-25T07:05:42.565Z,0
2023-01-25T07:07:22.803Z,0
2023-01-25T07:09:02.989Z,0
2023-01-25T07:10:43.238Z,0
2023-01-25T07:12:23.420Z,1
2023-01-25T07:14:03.647Z,1
2023-01-25T07:15:43.800Z,1
2023-01-25T07:17:24.031Z,1
2023-01-25T07:19:04.270Z,1
2023-01-25T07:20:44.461Z,2
2023-01-25T07:22:24.667Z,2
2023-01-25T07:24:04.926Z,2
2023-01-25T07:25:45.052Z,2
2023-01-25T07:27:25.314Z,2
2023-01-25T07:29:05.599Z,3
2023-01-25T07:30:45.793Z,3
2023-01-25T07:32:26.016Z,3
2023-01-25T07:34:06.211Z,3
2023-01-25T07:35:46.397Z,4
2023-01-25T07:37:26.600Z,4
2023-01-25T07:39:06.901Z,4
2023-01-25T07:40:47.140Z,5
2023-01-25T07:42:27.360Z,5
2023-01-25T07:44:07.566Z,6
2023-01-25T07:45:47.747Z,6
2023-01-25T07:47:27.949Z,6
2023-01-25T07:49:08.154Z,7
2023-01-25T07:50:48.344Z,7
2023-01-25T07:52:28.584Z,7
2023-01-25T07:54:08.804Z,7
2023-01-25T07:55:49.011Z,8
2023-01-25T07:57:29.190Z,8
2023-01-25T07:59:09.427Z,8
2023-01-25T08:00:49.576Z,9
2023-01-25T08:02:29.841Z,9
2023-01-25T08:04:10.054Z,9
2023-01-25T08:05:50.328Z,9
2023-01-25T08:07:30.596Z,10
2023-01-25T08:09:10.861Z,10
2023-01-25T08:10:50.984Z,10
2023-01-25T08:12:31.224Z,10
2023-01-25T08:14:11.517Z,10
2023-01-25T08:15:51.584Z,10
2023-01-25T08:17:31.831Z,11
2023-01-25T08:19:12.103Z,11
2023-01-25T08:20:52.276Z,11
2023-01-25T08:22:32.531Z,11
2023-01-25T08:24:12.814Z,12
2023-01-25T08:25:52.959Z,12
2023-01-25T08:27:33.173Z,12
2023-01-25T08:29:13.357Z,13
2023-01-25T08:30:57.477Z,13
2023-01-25T08:32:33.756Z,14
2023-01-25T08:34:13.998Z,14
2023-01-25T08:35:54.258Z,15
2023-01-25T08:37:34.400Z,15
2023-01-25T08:39:14.617Z,15
2023-01-25T08:40:54.877Z,16
2023-01-25T08:42:35.147Z,16
2023-01-25T08:44:15.305Z,16
2023-01-25T08:45:55.572Z,16
2023-01-25T08:47:35.786Z,16
2023-01-25T08:49:15.984Z,16
2023-01-25T08:50:56.195Z,16
2023-01-25T08:52:36.390Z,16
2023-01-25T08:54:16.576Z,16
2023-01-25T08:55:56.821Z,16
2023-01-25T08:57:37.076Z,17
2023-01-25T08:59:17.250Z,17
2023-01-25T09:00:57.449Z,17
2023-01-25T09:02:37.678Z,17
2023-01-25T09:04:17.858Z,18
2023-01-25T09:05:58.063Z,18
2023-01-25T09:07:38.229Z,19
2023-01-25T09:09:18.513Z,20
2023-01-25T09:10:58.673Z,20
2023-01-25T09:12:38.857Z,20
2023-01-25T09:14:19.152Z,21
2023-01-25T09:15:59.377Z,21
2023-01-25T09:17:39.564Z,22
2023-01-25T09:19:19.787Z,22
2023-01-25T09:20:59.997Z,23
2023-01-25T09:22:40.236Z,22
2023-01-25T09:24:20.465Z,22
2023-01-25T09:26:00.660Z,21
2023-01-25T09:27:40.885Z,22
2023-01-25T09:29:21.155Z,23
2023-01-25T09:31:19.701Z,24
2023-01-25T09:32:41.642Z,26
2023-01-25T09:34:21.745Z,27
2023-01-25T09:36:02.046Z,27
2023-01-25T09:37:42.225Z,28
2023-01-25T09:39:22.400Z,29
2023-01-25T09:41:02.618Z,29
2023-01-25T09:42:42.792Z,29
2023-01-25T09:44:23.017Z,30
2023-01-25T09:46:03.306Z,30
2023-01-25T09:47:43.448Z,31
2023-01-25T09:49:23.700Z,30
2023-01-25T09:51:03.975Z,30
2023-01-25T09:52:44.190Z,32
2023-01-25T09:54:24.388Z,33
2023-01-25T09:56:04.620Z,33
2023-01-25T09:57:44.756Z,32
2023-01-25T09:59:24.998Z,31
2023-01-25T10:01:12.062Z,31
2023-01-25T10:02:45.469Z,30
2023-01-25T10:04:25.587Z,31
2023-01-25T10:06:05.736Z,32
2023-01-25T10:07:45.982Z,32
2023-01-25T10:09:26.296Z,32
2023-01-25T10:11:06.466Z,31
2023-01-25T10:12:46.646Z,31
2023-01-25T10:14:26.850Z,32
2023-01-25T10:16:14.601Z,35
2023-01-25T10:17:47.328Z,36
2023-01-25T10:19:27.525Z,35
2023-01-25T10:21:07.749Z,36
2023-01-25T10:22:47.995Z,35
2023-01-25T10:24:28.132Z,35
2023-01-25T10:26:08.351Z,37
2023-01-25T10:27:48.575Z,37
2023-01-25T10:29:28.872Z,38
2023-01-25T10:31:09.216Z,37
2023-01-25T10:32:55.956Z,39
2023-01-25T10:34:29.480Z,40
2023-01-25T10:36:09.714Z,39
2023-01-25T10:37:49.906Z,39
2023-01-25T10:39:30.150Z,39
2023-01-25T10:41:10.361Z,39
2023-01-25T10:42:50.568Z,43
2023-01-25T10:44:30.833Z,43
2023-01-25T10:46:11.036Z,45
2023-01-25T10:47:51.264Z,45
2023-01-25T10:49:31.436Z,47
2023-01-25T10:51:11.634Z,47
2023-01-25T10:52:51.909Z,48
2023-01-25T10:54:32.104Z,48
2023-01-25T10:56:12.309Z,47
2023-01-25T10:57:52.489Z,45
2023-01-25T10:59:32.744Z,45
2023-01-25T11:01:12.960Z,43
2023-01-25T11:02:53.284Z,41
2023-01-25T11:04:33.425Z,42
2023-01-25T11:06:13.610Z,45
2023-01-25T11:07:53.856Z,44
2023-01-25T11:09:34.074Z,47
2023-01-25T11:11:14.241Z,48
2023-01-25T11:12:54.464Z,49
2023-01-25T11:14:34.689Z,47
2023-01-25T11:16:14.844Z,48
2023-01-25T11:17:54.990Z,48
2023-01-25T11:19:35.215Z,47
2023-01-25T11:21:15.394Z,46
2023-01-25T11:22:55.742Z,49
2023-01-25T11:24:35.895Z,50
2023-01-25T11:26:16.027Z,49
2023-01-25T11:27:56.237Z,49
2023-01-25T11:29:36.492Z,49
2023-01-25T11:31:16.797Z,47
2023-01-25T11:32:56.856Z,46
2023-01-25T11:34:37.104Z,46
2023-01-25T11:36:17.310Z,47
2023-01-25T11:37:57.564Z,46
2023-01-25T11:39:37.711Z,49
2023-01-25T11:41:17.923Z,49
2023-01-25T11:42:58.087Z,52
2023-01-25T11:44:38.307Z,48
2023-01-25T11:46:18.538Z,45
2023-01-25T11:47:58.757Z,44
2023-01-25T11:49:38.944Z,48
2023-01-25T11:51:19.178Z,47
2023-01-25T11:52:59.478Z,47
2023-01-25T11:54:39.674Z,46
2023-01-25T11:56:19.908Z,46
2023-01-25T11:58:00.159Z,48
2023-01-25T11:59:40.386Z,47
2023-01-25T12:01:20.579Z,46
2023-01-25T12:03:00.904Z,47
2023-01-25T12:04:41.043Z,45
2023-01-25T12:06:21.259Z,43
2023-01-25T12:08:01.494Z,41
2023-01-25T12:09:41.733Z,38
2023-01-25T12:11:21.948Z,37
2023-01-25T12:13:02.120Z,41
2023-01-25T12:14:42.317Z,42
2023-01-25T12:16:22.599Z,42
2023-01-25T12:18:02.789Z,43
2023-01-25T12:19:43.034Z,49
2023-01-25T12:21:31.353Z,49
2023-01-25T12:23:03.454Z,48
2023-01-25T12:24:43.647Z,45
2023-01-25T12:26:23.837Z,42
2023-01-25T12:28:04.101Z,41
2023-01-25T12:29:44.376Z,40
2023-01-25T12:31:24.642Z,43
2023-01-25T12:33:14.195Z,42
2023-01-25T12:34:45.021Z,40
2023-01-25T12:36:25.197Z,40
2023-01-25T12:38:05.372Z,41
2023-01-25T12:39:45.591Z,43
2023-01-25T12:41:25.807Z,43
2023-01-25T12:43:06.035Z,46
2023-01-25T12:44:46.304Z,45
2023-01-25T12:46:26.637Z,46
2023-01-25T12:48:06.730Z,45
2023-01-25T12:49:47.044Z,48
2023-01-25T12:51:27.287Z,45
2023-01-25T12:53:07.550Z,45
2023-01-25T12:54:47.721Z,46
2023-01-25T12:56:27.941Z,46
2023-01-25T12:58:08.095Z,45
2023-01-25T12:59:48.367Z,45
2023-01-25T13:01:28.583Z,45
2023-01-25T13:03:08.798Z,47
2023-01-25T13:04:49.035Z,47
2023-01-25T13:06:29.249Z,47
2023-01-25T13:08:09.448Z,45
2023-01-25T13:09:49.693Z,45
2023-01-25T13:11:29.925Z,44
2023-01-25T13:13:10.099Z,42
2023-01-25T13:14:50.328Z,42
2023-01-25T13:16:30.637Z,42
2023-01-25T13:18:10.752Z,42
2023-01-25T13:19:51.024Z,40
2023-01-25T13:21:31.294Z,40
2023-01-25T13:23:11.447Z,39
2023-01-25T13:24:51.680Z,40
2023-01-25T13:26:31.953Z,40
2023-01-25T13:28:12.184Z,41
2023-01-25T13:29:52.369Z,41
2023-01-25T13:31:46.396Z,40
2023-01-25T13:33:12.803Z,40
2023-01-25T13:34:53.033Z,41
2023-01-25T13:36:33.237Z,40
2023-01-25T13:38:13.492Z,41
2023-01-25T13:39:53.706Z,39
2023-01-25T13:41:33.921Z,37
2023-01-25T13:43:14.149Z,38
2023-01-25T13:44:54.343Z,37
2023-01-25T13:46:34.645Z,35
2023-01-25T13:48:15.408Z,34
2023-01-25T13:49:55.191Z,34
2023-01-25T13:51:35.364Z,34
2023-01-25T13:53:15.553Z,34
2023-01-25T13:54:55.690Z,32
2023-01-25T13:56:35.933Z,33
2023-01-25T13:58:16.005Z,31
2023-01-25T14:00:01.935Z,29
2023-01-25T14:01:36.347Z,28
2023-01-25T14:03:16.484Z,27
2023-01-25T14:04:56.636Z,27
2023-01-25T14:06:36.816Z,27
2023-01-25T14:08:18.112Z,26
2023-01-25T14:09:57.125Z,26
2023-01-25T14:11:37.328Z,26
2023-01-25T14:13:17.449Z,24
2023-01-25T14:14:57.618Z,24
2023-01-25T14:16:37.848Z,23
2023-01-25T14:18:17.910Z,23
2023-01-25T14:19:58.060Z,21
2023-01-25T14:21:38.177Z,22
2023-01-25T14:23:18.331Z,22
2023-01-25T14:24:58.488Z,22
2023-01-25T14:26:38.651Z,22
2023-01-25T14:28:18.908Z,23
2023-01-25T14:29:58.977Z,22
2023-01-25T14:31:39.204Z,23
2023-01-25T14:33:19.310Z,21
2023-01-25T14:34:59.449Z,20
2023-01-25T14:36:39.614Z,21
2023-01-25T14:38:19.781Z,21
2023-01-25T14:40:00.010Z,20
2023-01-25T14:41:41.964Z,20
2023-01-25T14:43:20.284Z,18
2023-01-25T14:45:01.299Z,18
2023-01-25T14:46:40.625Z,17
2023-01-25T14:48:20.709Z,16
2023-01-25T14:50:00.861Z,14
2023-01-25T14:51:41.023Z,14
2023-01-25T14:53:21.205Z,13
2023-01-25T14:55:01.347Z,13
2023-01-25T14:56:41.538Z,12
2023-01-25T14:58:21.652Z,11
2023-01-25T15:00:01.820Z,10
2023-01-25T15:01:41.933Z,9
2023-01-25T15:03:22.129Z,9
2023-01-25T15:05:14.611Z,9
2023-01-25T15:06:42.394Z,9
2023-01-25T15:08:22.586Z,8
2023-01-25T15:10:02.763Z,8
2023-01-25T15:11:42.957Z,8
2023-01-25T15:13:23.095Z,7
2023-01-25T15:15:03.206Z,7
2023-01-25T15:16:43.425Z,7
2023-01-25T15:18:23.532Z,7
2023-01-25T15:20:03.692Z,6
2023-01-25T15:21:43.803Z,6
2023-01-25T15:23:24.007Z,6
2023-01-25T15:25:05.832Z,5
2023-01-25T15:26:47.312Z,5
2023-01-25T15:28:24.398Z,5
2023-01-25T15:30:04.567Z,4
2023-01-25T15:31:44.846Z,4
2023-01-25T15:33:24.987Z,4
2023-01-25T15:35:05.120Z,4
2023-01-25T15:36:45.253Z,3
2023-01-25T15:38:25.437Z,3
2023-01-25T15:40:05.598Z,3
2023-01-25T15:41:45.746Z,3
2023-01-25T15:43:25.928Z,3
2023-01-25T15:45:06.965Z,2
2023-01-25T15:46:46.240Z,2
2023-01-25T15:48:26.402Z,2
2023-01-25T15:50:06.566Z,2
2023-01-25T15:51:46.740Z,2
2023-01-25T15:53:27.006Z,1
2023-01-25T15:55:07.202Z,1
2023-01-25T15:56:47.378Z,1
2023-01-25T15:58:27.551Z,1
2023-01-25T16:00:08.111Z,1
2023-01-25T16:01:47.891Z,0
2023-01-25T16:03:28.042Z,0
2023-01-25T16:05:08.166Z,0
2023-01-25T16:06:48.294Z,0
2023-01-25T16:08:28.506Z,0
2023-01-25T16:10:08.983Z,0
2023-01-25T16:11:48.836Z,0
2023-01-25T16:13:28.975Z,0
2023-01-25T16:15:09.124Z,0
2023-01-25T16:16:49.512Z,0
2023-01-25T16:18:29.391Z,0
2023-01-25T16:20:10.010Z,0
2023-01-25T16:21:49.737Z,0
2023-01-25T16:23:29.989Z,0
2023-01-25T16:25:10.115Z,0
2023-01-25T16:26:50.237Z,0
2023-01-25T16:28:30.392Z,0
2023-01-25T16:30:10.990Z,0
2023-01-25T16:31:51.022Z,0
2023-01-25T16:33:30.999Z,0
2023-01-25T16:35:11.226Z,0
2023-01-25T16:36:51.340Z,0
2023-01-25T16:38:31.500Z,0
2023-01-25T16:40:12.008Z,0
2023-01-25T16:41:51.897Z,0
2023-01-25T16:43:42.394Z,0
2023-01-25T16:45:12.211Z,0
2023-01-25T16:46:52.373Z,0
2023-01-25T16:48:32.491Z,0
2023-01-25T16:50:12.874Z,0
2023-01-25T16:51:55.896Z,0
2023-01-25T16:53:33.108Z,0
2023-01-25T16:55:13.181Z,0
2023-01-25T16:56:53.356Z,0
2023-01-25T16:58:33.460Z,0
2023-01-25T17:00:13.582Z,0
2023-01-25T17:01:53.753Z,0
2023-01-25T17:03:33.918Z,0
2023-01-25T17:05:14.102Z,0
2023-01-25T17:06:54.242Z,0
2023-01-25T17:08:34.440Z,0
2023-01-25T17:10:14.574Z,0
2023-01-25T17:11:54.759Z,0
2023-01-25T17:13:34.863Z,0
2023-01-25T17:15:15.021Z,0
2023-01-25T17:16:55.143Z,0
2023-01-25T17:18:35.267Z,0
2023-01-25T17:20:15.415Z,0
2023-01-25T17:21:55.536Z,0
2023-01-25T17:23:35.734Z,0
2023-01-25T17:25:15.926Z,0
2023-01-25T17:26:56.071Z,0
2023-01-25T17:28:36.230Z,0
2023-01-25T17:30:19.420Z,0
2023-01-25T17:31:56.539Z,0
2023-01-25T17:33:36.695Z,0
2023-01-25T17:35:16.864Z,0
2023-01-25T17:36:57.029Z,0
2023-01-25T17:38:37.235Z,0
2023-01-25T17:40:17.415Z,0
2023-01-25T17:41:57.616Z,0
2023-01-25T17:43:37.773Z,0
2023-01-25T17:45:17.962Z,0
2023-01-25T17:46:58.130Z,0
2023-01-25T17:48:38.291Z,0
2023-01-25T17:50:18.424Z,0
2023-01-25T17:51:58.648Z,0
2023-01-25T17:53:38.899Z,0
2023-01-25T17:55:19.043Z,0
2023-01-25T17:56:59.184Z,0
2023-01-25T17:58:39.349Z,0
2023-01-25T18:00:19.457Z,0
2023-01-25T18:02:06.706Z,0
2023-01-25T18:03:39.710Z,0
2023-01-25T18:05:19.865Z,0
2023-01-25T18:06:59.968Z,0
2023-01-25T18:08:40.138Z,0
2023-01-25T18:10:23.390Z,0
2023-01-25T18:12:00.527Z,0
2023-01-25T18:13:40.643Z,0
2023-01-25T18:15:20.742Z,0
2023-01-25T18:17:00.930Z,0
2023-01-25T18:18:41.051Z,0
2023-01-25T18:20:21.207Z,0
2023-01-25T18:22:01.335Z,0
2023-01-25T18:23:41.495Z,0
2023-01-25T18:25:21.625Z,0
2023-01-25T18:27:01.804Z,0
2023-01-25T18:28:42.007Z,0
2023-01-25T18:30:22.135Z,0
2023-01-25T18:32:02.328Z,0
2023-01-25T18:33:45.475Z,0
2023-01-25T18:35:22.565Z,0
2023-01-25T18:37:02.710Z,0
2023-01-25T18:38:42.911Z,0
2023-01-25T18:40:23.069Z,0
2023-01-25T18:42:03.212Z,0
2023-01-25T18:43:43.373Z,0
2023-01-25T18:45:23.531Z,0
2023-01-25T18:47:03.763Z,0
2023-01-25T18:48:47.062Z,0
2023-01-25T18:50:24.073Z,0
2023-01-25T18:52:11.414Z,0
2023-01-25T18:53:47.905Z,0
2023-01-25T18:55:24.854Z,0
2023-01-25T18:57:05.000Z,0
2023-01-25T18:58:45.213Z,0
2023-01-25T19:00:28.431Z,0
2023-01-25T19:02:05.579Z,0
2023-01-25T19:03:45.654Z,0
2023-01-25T19:05:25.815Z,0
2023-01-25T19:07:05.917Z,0
2023-01-25T19:08:46.116Z,0
2023-01-25T19:10:26.313Z,0
2023-01-25T19:12:06.448Z,0
2023-01-25T19:13:46.584Z,0
2023-01-25T19:15:26.758Z,0
2023-01-25T19:17:06.892Z,0
2023-01-25T19:18:47.086Z,0
2023-01-25T19:20:27.232Z,0
2023-01-25T19:22:07.376Z,0
2023-01-25T19:23:47.671Z,0
2023-01-25T19:25:27.671Z,0
2023-01-25T19:27:10.880Z,0
2023-01-25T19:28:47.967Z,0
2023-01-25T19:30:31.667Z,0
2023-01-25T19:32:08.284Z,0
2023-01-25T19:33:48.445Z,0
2023-01-25T19:37:11.840Z,0
2023-01-25T19:38:48.974Z,0
2023-01-25T19:40:29.121Z,0
2023-01-25T19:42:12.369Z,0
2023-01-25T19:43:49.406Z,0
2023-01-25T19:45:29.590Z,0
2023-01-25T19:47:09.755Z,0
2023-01-25T19:48:50.257Z,0
2023-01-25T19:50:30.058Z,0
2023-01-25T19:52:10.244Z,0
2023-01-25T19:53:50.403Z,0
2023-01-25T19:55:30.568Z,0
2023-01-25T19:57:10.636Z,0
2023-01-25T19:58:50.779Z,0
2023-01-25T20:00:30.908Z,0
2023-01-25T20:02:11.123Z,0
2023-01-25T20:03:51.182Z,0
2023-01-25T20:05:31.355Z,0
2023-01-25T20:07:11.453Z,0
2023-01-25T20:08:51.613Z,0
2023-01-25T20:10:31.764Z,0
2023-01-25T20:12:11.961Z,0
2023-01-25T20:13:52.041Z,0
2023-01-25T20:15:35.292Z,0
2023-01-25T20:17:12.373Z,0
2023-01-25T20:18:52.524Z,0
2023-01-25T20:20:32.682Z,0
2023-01-25T20:22:12.823Z,0
2023-01-25T20:23:53.010Z,0
2023-01-25T20:25:33.108Z,0
2023-01-25T20:27:13.237Z,0
2023-01-25T20:28:53.430Z,0
2023-01-25T20:30:33.547Z,0
2023-01-25T20:32:30.677Z,0
2023-01-25T20:33:53.808Z,0
2023-01-25T20:35:33.979Z,0
2023-01-25T20:37:14.107Z,0
2023-01-25T20:38:54.272Z,0
2023-01-25T20:40:34.441Z,0
2023-01-25T20:42:14.602Z,0
2023-01-25T20:43:54.738Z,0
2023-01-25T20:45:34.904Z,0
2023-01-25T20:47:15.086Z,0
2023-01-25T20:48:55.216Z,0
2023-01-25T20:50:38.458Z,0
2023-01-25T20:52:18.614Z,0
2023-01-25T20:53:55.762Z,0
2023-01-25T20:55:35.922Z,0
2023-01-25T20:57:16.103Z,0
2023-01-25T20:58:56.242Z,0
2023-01-25T21:00:36.465Z,0
2023-01-25T21:02:16.622Z,0
2023-01-25T21:03:56.940Z,0
2023-01-25T21:05:36.919Z,0
2023-01-25T21:07:17.087Z,0
2023-01-25T21:08:57.217Z,0
2023-01-25T21:10:37.406Z,0
2023-01-25T21:12:17.626Z,0
2023-01-25T21:13:57.767Z,0
2023-01-25T21:15:37.921Z,0
2023-01-25T21:17:18.039Z,0
2023-01-25T21:18:58.200Z,0
2023-01-25T21:20:38.330Z,0
2023-01-25T21:22:18.546Z,0
2023-01-25T21:23:58.705Z,0
2023-01-25T21:25:38.856Z,0
2023-01-25T21:27:19.011Z,0
2023-01-25T21:28:59.215Z,0
2023-01-25T21:30:39.355Z,0
2023-01-25T21:32:19.469Z,0
2023-01-25T21:33:59.645Z,0
2023-01-25T21:35:39.792Z,0
2023-01-25T21:37:19.925Z,0
2023-01-25T21:39:00.096Z,0
2023-01-25T21:40:40.187Z,0
2023-01-25T21:42:20.331Z,0
2023-01-25T21:44:00.479Z,0
2023-01-25T21:45:40.669Z,0
2023-01-25T21:47:30.070Z,0
2023-01-25T21:49:00.987Z,0
2023-01-25T21:50:41.122Z,0
2023-01-25T21:52:21.334Z,0
2023-01-25T21:54:01.479Z,0
2023-01-25T21:55:41.650Z,0
2023-01-25T21:57:21.870Z,0
2023-01-25T21:59:01.975Z,0
2023-01-25T22:00:42.124Z,0
2023-01-25T22:02:22.362Z,0
2023-01-25T22:04:02.422Z,0
2023-01-25T22:05:42.656Z,0
2023-01-25T22:07:22.824Z,0
2023-01-25T22:09:03.167Z,0
2023-01-25T22:10:43.431Z,0
2023-01-25T22:12:23.552Z,0
2023-01-25T22:14:03.761Z,0
2023-01-25T22:15:44.035Z,0
2023-01-25T22:17:24.144Z,0
2023-01-25T22:19:04.297Z,0
2023-01-25T22:20:44.475Z,0
2023-01-25T22:22:24.658Z,0
2023-01-25T22:24:04.872Z,0
2023-01-25T22:25:44.962Z,0
2023-01-25T22:27:25.180Z,0
2023-01-25T22:29:05.386Z,0
2023-01-25T22:30:45.584Z,0
2023-01-25T22:32:25.717Z,0
2023-01-25T22:34:05.839Z,0
2023-01-25T22:35:45.989Z,0
2023-01-25T22:37:26.200Z,0
2023-01-25T22:39:06.378Z,0
2023-01-25T22:40:46.556Z,0
2023-01-25T22:42:26.746Z,0
2023-01-25T22:44:06.873Z,0
2023-01-25T22:45:47.048Z,0
2023-01-25T22:47:27.151Z,0
2023-01-25T22:49:07.271Z,0
2023-01-25T22:50:47.419Z,0
2023-01-25T22:52:27.600Z,0
2023-01-25T22:54:07.780Z,0
2023-01-25T22:55:47.920Z,0
2023-01-25T22:57:28.049Z,0
2023-01-25T22:59:08.172Z,0
2023-01-25T23:00:48.305Z,0
2023-01-25T23:02:28.410Z,0
2023-01-25T23:04:08.567Z,0
2023-01-25T23:05:48.727Z,0
2023-01-25T23:07:28.862Z,0
2023-01-25T23:09:09.008Z,0
2023-01-25T23:10:49.151Z,0
2023-01-25T23:12:29.299Z,0
2023-01-25T23:14:09.463Z,0
2023-01-25T23:15:49.586Z,0
2023-01-25T23:17:29.701Z,0
2023-01-25T23:19:09.900Z,0
2023-01-25T23:20:50.048Z,0
2023-01-25T23:22:30.186Z,0
2023-01-25T23:24:10.345Z,0
2023-01-25T23:25:50.457Z,0
2023-01-25T23:27:30.636Z,0
2023-01-25T23:29:10.777Z,0
2023-01-25T23:30:50.976Z,0
2023-01-25T23:32:31.011Z,0
2023-01-25T23:34:11.221Z,0
2023-01-25T23:35:51.356Z,0
2023-01-25T23:37:31.493Z,0
2023-01-25T23:39:11.673Z,0
2023-01-25T23:40:51.845Z,0
2023-01-25T23:42:32.007Z,0
2023-01-25T23:44:12.188Z,0
2023-01-25T23:45:52.316Z,0
2023-01-25T23:47:32.447Z,0
2023-01-25T23:49:12.660Z,0
2023-01-25T23:52:33.055Z,0
2023-01-25T23:54:13.269Z,0
2023-01-25T23:55:53.475Z,0
2023-01-25T23:57:33.602Z,0
2023-01-25T23:59:13.746Z,0
